Time;durP1;ratioP1;P1;durP2;ratioP2;P2;SDS_P1;SDS_P2;PMS_P1;PMS_P2;Temp;Humidity;BMP_temperature;BMP_pressure;BME280_temperature;BME280_humidity;BME280_pressure;Samples;Min_cycle;Max_cycle;Signal;HPM_P1;HPM_P2
2022/06/29 00:02:17;;;;;;;27.38;6.00;;;22.30;99.90;;;;;;4144721;28;20053;-52
2022/06/29 00:04:37;;;;;;;18.17;5.75;;;22.30;99.90;;;;;;4143982;28;20589;-48
2022/06/29 00:06:58;;;;;;;21.00;4.55;;;22.30;99.90;;;;;;4145158;28;20112;-52
2022/06/29 00:09:19;;;;;;;21.35;4.28;;;22.30;99.90;;;;;;4159870;28;20060;-50
2022/06/29 00:11:39;;;;;;;24.65;6.28;;;22.30;99.90;;;;;;4152793;28;20127;-50
2022/06/29 00:14:00;;;;;;;27.35;6.85;;;22.30;99.90;;;;;;4146953;28;20060;-51
2022/06/29 00:16:21;;;;;;;18.52;7.18;;;22.30;99.90;;;;;;4144063;28;20129;-52
2022/06/29 00:18:42;;;;;;;21.30;5.00;;;22.40;99.90;;;;;;4162133;28;20048;-51
2022/06/29 00:21:04;;;;;;;23.70;6.10;;;22.40;99.90;;;;;;4147721;28;20056;-50
2022/06/29 00:23:24;;;;;;;27.05;5.20;;;22.40;99.90;;;;;;4155173;28;20107;-51
2022/06/29 00:25:45;;;;;;;24.77;4.43;;;22.30;99.90;;;;;;4147557;28;20573;-52
2022/06/29 00:28:06;;;;;;;28.00;5.47;;;22.30;99.90;;;;;;4147148;28;20049;-51
2022/06/29 00:30:27;;;;;;;26.10;5.43;;;22.30;99.90;;;;;;4147232;28;20410;-51
2022/06/29 00:32:48;;;;;;;21.60;6.38;;;22.30;99.90;;;;;;4147058;28;20056;-52
2022/06/29 00:35:09;;;;;;;22.08;5.82;;;22.30;99.90;;;;;;4147179;28;20471;-50
2022/06/29 00:37:30;;;;;;;19.75;6.50;;;22.30;99.90;;;;;;4147173;28;20456;-52
2022/06/29 00:39:51;;;;;;;23.00;5.82;;;22.30;99.90;;;;;;4147209;28;20515;-52
2022/06/29 00:42:12;;;;;;;26.67;7.00;;;22.30;99.90;;;;;;4147197;28;20053;-52
2022/06/29 00:44:33;;;;;;;18.42;4.57;;;22.30;99.90;;;;;;4160386;28;20107;-50
2022/06/29 00:46:56;;;;;;;24.92;4.75;;;22.30;99.90;;;;;;4147119;28;20068;-50
2022/06/29 00:49:19;;;;;;;20.65;4.50;;;22.30;99.90;;;;;;4148721;28;20137;-51
2022/06/29 00:51:41;;;;;;;23.85;4.30;;;22.30;99.90;;;;;;4155325;28;20536;-50
2022/06/29 00:54:05;;;;;;;28.90;5.60;;;22.30;99.90;;;;;;4147156;28;20420;-51
2022/06/29 00:56:27;;;;;;;20.65;3.88;;;22.30;99.90;;;;;;4147083;28;20092;-49
2022/06/29 00:58:51;;;;;;;18.15;5.22;;;22.30;99.90;;;;;;4145240;28;20603;-50
2022/06/29 01:01:15;;;;;;;16.85;4.97;;;22.20;99.90;;;;;;4155628;28;20044;-50
2022/06/29 01:03:36;;;;;;;19.48;3.97;;;22.10;99.90;;;;;;4146765;28;20045;-50
2022/06/29 01:05:57;;;;;;;19.83;5.10;;;22.00;99.90;;;;;;4146327;28;20053;-48
2022/06/29 01:08:18;;;;;;;19.50;4.03;;;22.00;99.90;;;;;;4158234;28;20060;-51
2022/06/29 01:10:38;;;;;;;20.02;4.35;;;21.90;99.90;;;;;;4156893;28;20057;-48
2022/06/29 01:12:59;;;;;;;24.90;5.35;;;21.80;99.90;;;;;;4163030;28;20092;-51
2022/06/29 01:15:21;;;;;;;18.60;3.80;;;21.80;99.90;;;;;;4146997;28;20100;-52
2022/06/29 01:17:41;;;;;;;19.70;5.85;;;21.70;99.90;;;;;;4153619;28;20264;-49
2022/06/29 01:20:03;;;;;;;15.27;5.65;;;21.70;99.90;;;;;;4157963;28;20523;-51
2022/06/29 01:22:26;;;;;;;16.20;3.65;;;21.70;99.90;;;;;;4147033;28;20439;-50
2022/06/29 01:24:47;;;;;;;;;;;21.70;99.90;;;;;;4147050;28;20508;-48
2022/06/29 01:27:07;;;;;;;18.33;3.30;;;21.70;99.90;;;;;;4146199;28;19936;-48
2022/06/29 01:29:29;;;;;;;23.65;4.75;;;21.70;99.90;;;;;;4145312;28;20057;-51
2022/06/29 01:31:56;;;;;;;14.38;3.30;;;21.70;99.90;;;;;;4146280;28;20056;-51
2022/06/29 01:34:17;;;;;;;20.00;5.00;;;21.70;99.90;;;;;;4146551;28;20048;-51
2022/06/29 01:36:38;;;;;;;20.50;4.05;;;21.70;99.90;;;;;;4146140;28;20524;-52
2022/06/29 01:38:59;;;;;;;22.48;4.63;;;21.80;99.90;;;;;;4146161;28;20193;-51
2022/06/29 01:41:20;;;;;;;16.80;4.00;;;21.80;99.90;;;;;;4146499;28;20049;-52
2022/06/29 01:43:41;;;;;;;14.93;3.90;;;21.60;99.90;;;;;;4153645;28;20072;-47
2022/06/29 01:46:05;;;;;;;14.65;3.33;;;21.70;99.90;;;;;;4153779;28;20084;-50
2022/06/29 01:48:26;;;;;;;13.57;2.95;;;21.70;99.90;;;;;;4146297;28;20081;-50
2022/06/29 01:50:46;;;;;;;18.63;4.32;;;21.70;99.90;;;;;;4160121;28;20115;-50
2022/06/29 01:53:07;;;;;;;14.07;3.33;;;21.70;99.90;;;;;;4147920;28;20057;-51
2022/06/29 01:55:28;;;;;;;13.55;3.25;;;21.70;99.90;;;;;;4150250;28;20056;-51
2022/06/29 01:57:48;;;;;;;16.83;3.28;;;21.70;99.90;;;;;;4161355;28;20436;-48
2022/06/29 02:00:10;;;;;;;17.58;3.45;;;21.70;99.90;;;;;;4145838;28;20048;-47
2022/06/29 02:02:31;;;;;;;13.02;4.28;;;21.70;99.90;;;;;;4145525;28;20089;-51
2022/06/29 02:04:51;;;;;;;22.67;3.58;;;21.60;99.90;;;;;;4145439;28;20528;-51
2022/06/29 02:07:15;;;;;;;12.93;2.78;;;21.60;99.90;;;;;;4148492;28;20060;-51
2022/06/29 02:09:37;;;;;;;15.85;3.13;;;21.60;99.90;;;;;;4145428;28;20104;-48
2022/06/29 02:11:58;;;;;;;17.80;3.85;;;21.60;99.90;;;;;;4155329;28;20452;-50
2022/06/29 02:14:18;;;;;;;24.27;4.18;;;21.60;99.90;;;;;;4157080;28;20052;-51
2022/06/29 02:16:39;;;;;;;17.73;4.05;;;21.60;99.90;;;;;;4145442;28;20216;-50
2022/06/29 02:19:00;;;;;;;19.52;2.95;;;21.60;99.90;;;;;;4145317;28;20052;-51
2022/06/29 02:21:20;;;;;;;16.85;2.97;;;21.50;99.90;;;;;;4145357;28;20125;-49
2022/06/29 02:23:41;;;;;;;9.55;2.78;;;21.50;99.90;;;;;;4145759;28;20149;-49
2022/06/29 02:26:02;;;;;;;15.55;2.40;;;21.50;99.90;;;;;;4145672;28;20049;-50
2022/06/29 02:28:23;;;;;;;11.20;1.85;;;21.40;99.90;;;;;;4145212;28;20084;-49
2022/06/29 02:36:04;;;;;;;20.42;2.28;;;21.50;99.90;;;;;;4145586;28;20222;-51
2022/06/29 02:38:24;;;;;;;13.00;2.40;;;21.40;99.90;;;;;;4145331;28;20096;-52
2022/06/29 02:40:45;;;;;;;8.27;1.70;;;21.40;99.90;;;;;;4144995;28;20132;-51
2022/06/29 02:43:06;;;;;;;14.35;2.13;;;21.40;99.90;;;;;;4148255;28;20048;-51
2022/06/29 02:45:27;;;;;;;9.88;2.75;;;21.40;99.90;;;;;;4161668;28;20068;-50
2022/06/29 02:47:48;;;;;;;10.15;2.22;;;21.30;99.90;;;;;;4145411;28;20412;-50
2022/06/29 02:50:08;;;;;;;13.48;2.08;;;21.30;99.90;;;;;;4153850;28;20139;-52
2022/06/29 02:52:29;;;;;;;19.83;2.40;;;21.30;99.90;;;;;;4156982;28;20052;-50
2022/06/29 02:54:50;;;;;;;11.65;2.08;;;21.30;99.90;;;;;;4143861;28;20065;-51
2022/06/29 02:57:11;;;;;;;8.77;1.58;;;21.30;99.90;;;;;;4144877;28;20056;-51
2022/06/29 02:59:32;;;;;;;15.68;1.85;;;21.20;99.90;;;;;;4145345;28;20405;-50
2022/06/29 03:01:53;;;;;;;9.85;1.95;;;21.20;99.90;;;;;;4145090;28;20048;-49
2022/06/29 03:04:14;;;;;;;3.75;2.05;;;21.20;99.90;;;;;;4145180;28;20544;-51
2022/06/29 03:06:34;;;;;;;8.80;1.90;;;21.20;99.90;;;;;;4145087;28;20049;-49
2022/06/29 03:08:55;;;;;;;8.23;1.55;;;21.10;99.90;;;;;;4144470;28;20061;-50
2022/06/29 03:11:16;;;;;;;7.72;1.63;;;21.00;99.90;;;;;;4148855;28;20103;-50
2022/06/29 03:13:37;;;;;;;12.30;1.63;;;21.00;99.90;;;;;;4144851;28;20096;-50
2022/06/29 03:15:57;;;;;;;5.68;1.65;;;21.00;99.90;;;;;;4144562;28;20057;-51
2022/06/29 03:18:18;;;;;;;12.63;2.85;;;20.90;99.90;;;;;;4149805;28;20508;-51
2022/06/29 03:20:39;;;;;;;10.27;1.67;;;20.90;99.90;;;;;;4144606;28;20062;-48
2022/06/29 03:23:00;;;;;;;9.95;2.13;;;20.80;99.90;;;;;;4144812;28;20053;-50
2022/06/29 03:25:21;;;;;;;8.30;1.50;;;20.70;99.90;;;;;;4144562;28;20044;-50
2022/06/29 03:27:42;;;;;;;9.73;1.40;;;20.70;99.90;;;;;;4144589;28;20476;-50
2022/06/29 03:30:03;;;;;;;7.43;2.40;;;20.60;99.90;;;;;;4145257;28;20405;-51
2022/06/29 03:32:24;;;;;;;9.40;1.10;;;20.60;99.90;;;;;;4161265;28;20080;-49
2022/06/29 03:34:45;;;;;;;12.85;1.48;;;20.50;99.90;;;;;;4149897;28;20060;-50
2022/06/29 03:37:06;;;;;;;15.15;1.85;;;20.40;99.90;;;;;;4144707;28;20045;-51
2022/06/29 03:39:27;;;;;;;5.93;1.60;;;20.30;99.90;;;;;;4144498;28;20516;-52
2022/06/29 03:41:47;;;;;;;7.25;1.77;;;20.20;99.90;;;;;;4144736;28;20096;-52
2022/06/29 03:44:09;;;;;;;7.50;1.48;;;20.20;99.90;;;;;;4146470;28;20053;-52
2022/06/29 03:46:30;;;;;;;6.68;1.27;;;20.10;99.90;;;;;;4144872;28;20149;-50
2022/06/29 03:48:50;;;;;;;5.75;1.63;;;20.00;99.90;;;;;;4144406;28;20099;-51
2022/06/29 03:51:11;;;;;;;4.72;1.35;;;19.90;99.90;;;;;;4144342;28;20060;-52
2022/06/29 03:53:32;;;;;;;9.10;1.42;;;19.90;99.90;;;;;;4143749;28;20483;-50
2022/06/29 03:55:53;;;;;;;5.10;1.33;;;19.90;99.90;;;;;;4144608;28;20044;-52
2022/06/29 03:58:14;;;;;;;6.85;1.80;;;19.90;99.90;;;;;;4144324;28;20049;-52
2022/06/29 04:00:36;;;;;;;7.22;1.75;;;19.90;99.90;;;;;;4144004;28;20104;-51
2022/06/29 04:02:57;;;;;;;5.68;1.20;;;19.90;99.90;;;;;;4144439;28;20128;-50
2022/06/29 04:05:17;;;;;;;13.07;2.08;;;19.80;99.90;;;;;;4144355;28;20053;-51
2022/06/29 04:07:38;;;;;;;5.72;1.17;;;19.80;99.90;;;;;;4150681;28;20531;-52
2022/06/29 04:09:59;;;;;;;5.32;1.25;;;19.80;99.90;;;;;;4147170;28;20108;-52
2022/06/29 04:12:20;;;;;;;9.52;1.45;;;19.70;99.90;;;;;;4152768;28;20048;-50
2022/06/29 04:14:41;;;;;;;4.97;1.77;;;19.60;99.90;;;;;;4144891;28;20065;-47
2022/06/29 04:17:02;;;;;;;7.35;1.05;;;19.50;99.90;;;;;;4155271;28;20609;-47
2022/06/29 04:19:24;;;;;;;4.03;1.00;;;19.50;99.90;;;;;;4149526;28;20127;-51
2022/06/29 04:21:46;;;;;;;6.28;1.10;;;19.40;99.90;;;;;;4144229;28;20125;-50
2022/06/29 04:24:07;;;;;;;5.63;1.20;;;19.40;99.90;;;;;;4144487;28;20120;-51
2022/06/29 04:26:28;;;;;;;4.85;1.70;;;19.40;99.90;;;;;;4146617;28;20069;-51
2022/06/29 04:28:49;;;;;;;8.73;1.08;;;19.40;99.90;;;;;;4150254;28;20115;-52
2022/06/29 04:31:10;;;;;;;10.50;1.83;;;19.30;99.90;;;;;;4157544;28;20056;-51
2022/06/29 04:33:32;;;;;;;3.63;1.40;;;19.30;99.90;;;;;;4144405;28;20105;-50
2022/06/29 04:35:53;;;;;;;2.13;1.00;;;19.30;99.90;;;;;;4144195;28;20092;-51
2022/06/29 04:38:14;;;;;;;6.35;1.02;;;19.40;99.90;;;;;;4147292;28;20341;-51
2022/06/29 04:40:34;;;;;;;3.95;1.15;;;19.50;99.90;;;;;;4158588;28;20092;-50
2022/06/29 04:42:55;;;;;;;4.95;1.05;;;19.50;99.90;;;;;;4145896;28;20093;-51
2022/06/29 04:48:00;;;;;;;7.55;1.63;;;19.60;99.90;;;;;;4147709;28;20060;-51
2022/06/29 04:50:21;;;;;;;4.63;1.00;;;19.60;99.90;;;;;;4156950;28;20049;-51
2022/06/29 04:52:42;;;;;;;4.38;1.77;;;19.60;99.90;;;;;;4143802;28;20134;-51
2022/06/29 04:55:04;;;;;;;8.65;1.00;;;19.80;99.90;;;;;;4144016;28;20541;-50
2022/06/29 04:57:25;;;;;;;7.57;1.83;;;19.80;99.90;;;;;;4143852;28;20056;-49
2022/06/29 04:59:45;;;;;;;5.50;0.95;;;19.80;99.90;;;;;;4143641;28;20108;-51
2022/06/29 05:02:06;;;;;;;5.47;0.93;;;20.00;99.90;;;;;;4143624;28;20069;-51
2022/06/29 05:04:26;;;;;;;6.10;1.00;;;20.10;99.90;;;;;;4145696;28;20052;-52
2022/06/29 05:06:47;;;;;;;5.70;1.00;;;20.20;99.90;;;;;;4146643;28;20057;-50
2022/06/29 05:09:08;;;;;;;3.45;0.80;;;20.20;99.90;;;;;;4146547;28;20056;-51
2022/06/29 05:11:29;;;;;;;8.60;1.02;;;20.20;99.90;;;;;;4153876;28;20253;-51
2022/06/29 05:13:50;;;;;;;2.75;0.75;;;20.30;99.90;;;;;;4150103;28;20515;-51
2022/06/29 05:16:11;;;;;;;2.65;0.80;;;20.40;99.90;;;;;;4146534;28;20523;-52
2022/06/29 05:18:33;;;;;;;3.75;0.93;;;20.40;99.90;;;;;;4160343;28;20052;-50
2022/06/29 05:20:54;;;;;;;2.47;0.80;;;20.50;99.90;;;;;;4146067;28;20617;-51
2022/06/29 05:23:15;;;;;;;7.03;1.08;;;20.50;99.90;;;;;;4145740;28;20139;-48
2022/06/29 05:25:36;;;;;;;5.20;1.10;;;20.60;99.90;;;;;;4146369;28;20068;-46
2022/06/29 05:27:57;;;;;;;4.13;0.80;;;20.60;99.90;;;;;;4146791;28;20057;-47
2022/06/29 05:30:18;;;;;;;3.10;0.77;;;20.70;99.90;;;;;;4145894;28;20540;-48
2022/06/29 05:32:39;;;;;;;3.08;0.95;;;20.70;99.90;;;;;;4146146;28;20542;-48
2022/06/29 05:35:00;;;;;;;4.97;0.70;;;20.70;99.90;;;;;;4146289;28;20436;-47
2022/06/29 05:37:21;;;;;;;3.38;0.80;;;20.90;99.90;;;;;;4146095;28;20053;-49
2022/06/29 05:39:45;;;;;;;3.80;0.70;;;20.90;99.90;;;;;;4146224;28;20060;-47
2022/06/29 05:42:05;;;;;;;3.05;0.70;;;21.10;99.90;;;;;;4146094;28;20137;-48
2022/06/29 05:44:26;;;;;;;3.28;0.90;;;21.00;99.90;;;;;;4157714;28;20615;-49
2022/06/29 05:46:47;;;;;;;2.38;0.70;;;21.00;99.90;;;;;;4148990;28;20061;-47
2022/06/29 05:49:09;;;;;;;6.97;0.88;;;21.20;99.90;;;;;;4146183;28;20068;-46
2022/06/29 05:51:30;;;;;;;4.97;0.90;;;21.20;99.90;;;;;;4155016;28;20113;-46
2022/06/29 05:53:51;;;;;;;4.70;1.23;;;21.10;99.90;;;;;;4145755;28;20104;-49
2022/06/29 05:56:12;;;;;;;5.10;0.98;;;21.00;99.90;;;;;;4144878;28;20061;-46
2022/06/29 05:58:33;;;;;;;1.95;0.60;;;21.10;99.90;;;;;;4145595;28;20248;-46
2022/06/29 06:00:54;;;;;;;3.35;1.05;;;21.20;99.90;;;;;;4145751;28;20053;-46
2022/06/29 06:03:15;;;;;;;4.07;1.27;;;21.10;99.90;;;;;;4145861;28;20520;-48
2022/06/29 06:05:36;;;;;;;6.95;1.00;;;21.00;99.90;;;;;;4144779;28;20100;-47
2022/06/29 06:07:58;;;;;;;4.43;0.70;;;20.80;99.90;;;;;;4154770;28;20056;-49
2022/06/29 06:10:19;;;;;;;2.00;0.85;;;20.80;99.90;;;;;;4156998;28;20052;-48
2022/06/29 06:12:40;;;;;;;3.90;0.77;;;20.80;99.90;;;;;;4145681;28;20520;-46
2022/06/29 06:15:01;;;;;;;3.60;0.73;;;20.80;99.90;;;;;;4145456;28;20176;-46
2022/06/29 06:17:26;;;;;;;4.85;0.73;;;20.80;99.90;;;;;;4150323;28;20080;-47
2022/06/29 06:19:55;;;;;;;5.38;0.90;;;20.70;99.90;;;;;;4156833;28;20056;-47
2022/06/29 06:22:16;;;;;;;2.80;0.80;;;20.80;99.90;;;;;;4145568;28;20060;-46
2022/06/29 06:24:37;;;;;;;7.80;0.88;;;20.70;99.90;;;;;;4144751;28;20550;-47
2022/06/29 06:26:58;;;;;;;6.70;1.05;;;20.60;99.90;;;;;;4145056;28;20049;-49
2022/06/29 06:29:21;;;;;;;4.60;1.27;;;20.60;99.90;;;;;;4145283;28;20417;-47
2022/06/29 06:31:45;;;;;;;4.45;0.90;;;20.40;99.90;;;;;;4145410;28;20057;-46
2022/06/29 06:34:06;;;;;;;2.38;0.70;;;20.30;99.90;;;;;;4145697;28;20053;-46
2022/06/29 06:36:29;;;;;;;4.55;0.90;;;20.40;99.90;;;;;;4145537;28;20076;-46
2022/06/29 06:38:50;;;;;;;4.07;0.80;;;20.40;99.90;;;;;;4145350;28;20056;-49
2022/06/29 06:41:23;;;;;;;2.50;0.90;;;20.40;99.90;;;;;;4154914;28;20052;-46
2022/06/29 06:43:43;;;;;;;8.10;0.70;;;20.50;99.90;;;;;;4153622;28;20421;-46
2022/06/29 06:46:07;;;;;;;4.40;0.70;;;20.50;99.90;;;;;;4150199;28;20093;-47
2022/06/29 06:48:28;;;;;;;2.38;0.98;;;20.40;99.90;;;;;;4145040;28;20418;-46
2022/06/29 06:50:52;;;;;;;2.55;0.80;;;20.40;99.90;;;;;;4159392;28;20052;-47
2022/06/29 06:53:12;;;;;;;5.40;1.40;;;20.40;99.90;;;;;;4145049;28;20304;-46
2022/06/29 06:55:33;;;;;;;6.13;1.63;;;20.40;99.90;;;;;;4145167;28;20056;-47
2022/06/29 06:57:54;;;;;;;3.55;1.25;;;20.50;99.90;;;;;;4144916;28;20077;-47
2022/06/29 07:00:14;;;;;;;5.68;1.38;;;20.40;99.90;;;;;;4145239;28;20052;-47
2022/06/29 07:02:36;;;;;;;5.22;2.00;;;20.40;99.90;;;;;;4144635;28;20571;-46
2022/06/29 07:04:56;;;;;;;2.35;0.95;;;20.50;99.90;;;;;;4144883;28;20049;-47
2022/06/29 07:07:17;;;;;;;2.17;0.90;;;20.60;99.90;;;;;;4146722;28;20052;-46
2022/06/29 07:09:38;;;;;;;1.63;0.90;;;20.60;99.90;;;;;;4144935;28;20123;-46
2022/06/29 07:12:02;;;;;;;1.17;0.70;;;20.70;99.90;;;;;;4155321;28;20115;-46
2022/06/29 07:14:24;;;;;;;6.43;0.93;;;20.70;99.90;;;;;;4154209;28;20486;-46
2022/06/29 07:16:45;;;;;;;2.72;1.27;;;20.70;99.90;;;;;;4144935;28;20052;-46
2022/06/29 07:19:06;;;;;;;8.68;1.20;;;20.70;99.90;;;;;;4161302;28;20068;-46
2022/06/29 07:21:27;;;;;;;4.93;1.05;;;20.70;99.90;;;;;;4148665;28;20141;-45
2022/06/29 07:23:48;;;;;;;14.60;9.50;;;20.70;99.90;;;;;;4145135;28;20065;-47
2022/06/29 07:26:09;;;;;;;12.80;6.32;;;20.70;99.90;;;;;;4145367;28;20056;-46
2022/06/29 07:28:31;;;;;;;8.57;2.53;;;20.60;99.90;;;;;;4144378;28;20135;-46
2022/06/29 07:30:51;;;;;;;5.20;1.08;;;20.70;99.90;;;;;;4156146;28;20107;-46
2022/06/29 07:33:12;;;;;;;12.13;6.75;;;20.70;99.90;;;;;;4157196;28;20049;-46
2022/06/29 07:35:33;;;;;;;2.97;1.20;;;20.70;99.90;;;;;;4145177;28;20129;-47
2022/06/29 07:37:54;;;;;;;6.07;1.05;;;20.80;99.90;;;;;;4158493;28;20059;-49
2022/06/29 07:40:15;;;;;;;4.82;0.90;;;20.90;99.90;;;;;;4151323;28;20053;-48
2022/06/29 07:42:36;;;;;;;3.53;0.85;;;21.00;99.90;;;;;;4144996;28;20052;-46
2022/06/29 07:44:57;;;;;;;1.60;0.80;;;21.20;99.90;;;;;;4144754;28;20524;-46
2022/06/29 07:47:17;;;;;;;3.25;0.70;;;21.20;99.90;;;;;;4144680;28;20571;-48
2022/06/29 07:49:38;;;;;;;5.55;1.00;;;21.50;99.90;;;;;;4149406;28;20048;-45
2022/06/29 07:51:59;;;;;;;7.13;1.08;;;21.50;99.90;;;;;;4159310;28;20056;-47
2022/06/29 07:54:20;;;;;;;4.07;1.00;;;21.40;99.90;;;;;;4145135;28;20177;-49
2022/06/29 07:56:41;;;;;;;5.97;0.90;;;21.30;99.90;;;;;;4144820;28;20791;-46
2022/06/29 07:59:21;;;;;;;6.88;0.90;;;21.20;99.90;;;;;;4144737;28;20053;-48
2022/06/29 08:01:43;;;;;;;4.65;0.80;;;21.40;99.90;;;;;;4144761;28;20053;-46
2022/06/29 08:04:05;;;;;;;3.92;0.75;;;21.50;99.90;;;;;;4144851;28;20102;-47
2022/06/29 08:06:26;;;;;;;1.25;0.70;;;21.80;99.90;;;;;;4144848;28;20049;-48
2022/06/29 08:08:52;;;;;;;3.25;0.80;;;21.80;99.90;;;;;;4151448;28;20060;-48
2022/06/29 08:11:13;;;;;;;6.03;1.58;;;21.70;99.90;;;;;;4146974;28;20056;-49
2022/06/29 08:13:34;;;;;;;6.43;1.15;;;21.80;99.90;;;;;;4144937;28;20104;-50
2022/06/29 08:15:55;;;;;;;4.78;0.88;;;21.70;99.90;;;;;;4144805;28;20129;-46
2022/06/29 08:18:16;;;;;;;3.95;0.90;;;21.60;99.90;;;;;;4148480;28;20061;-46
2022/06/29 08:20:38;;;;;;;8.02;1.00;;;21.60;99.90;;;;;;4144414;28;20422;-47
2022/06/29 08:22:59;;;;;;;7.05;2.40;;;21.80;99.90;;;;;;4143768;28;20080;-49
2022/06/29 08:25:20;;;;;;;5.03;0.90;;;21.70;99.90;;;;;;4144523;28;20052;-48
2022/06/29 08:27:42;;;;;;;3.75;1.08;;;21.60;99.90;;;;;;4144652;28;20057;-46
2022/06/29 08:30:08;;;;;;;3.30;0.93;;;21.70;99.90;;;;;;4144766;28;20129;-48
2022/06/29 08:32:29;;;;;;;6.07;1.15;;;21.60;99.90;;;;;;4144586;28;20422;-47
2022/06/29 08:34:51;;;;;;;3.55;0.93;;;21.50;99.90;;;;;;4147654;28;20373;-46
2022/06/29 08:37:12;;;;;;;3.42;0.70;;;21.40;99.90;;;;;;4144403;28;20064;-47
2022/06/29 08:39:33;;;;;;;2.72;1.00;;;21.40;99.90;;;;;;4146533;28;20512;-46
2022/06/29 08:41:56;;;;;;;3.15;0.90;;;21.40;99.90;;;;;;4147936;28;20053;-47
2022/06/29 08:44:18;;;;;;;1.80;0.70;;;21.50;99.90;;;;;;4148205;28;20128;-46
2022/06/29 08:46:39;;;;;;;10.88;2.42;;;21.50;99.90;;;;;;4147469;28;20061;-46
2022/06/29 08:49:02;;;;;;;5.97;1.33;;;21.50;99.90;;;;;;4147469;28;20065;-47
2022/06/29 08:51:23;;;;;;;;;;;21.60;99.90;;;;;;4147869;28;20516;-48
2022/06/29 08:53:45;;;;;;;22.58;9.50;;;21.70;99.90;;;;;;4147120;28;19967;-46
2022/06/29 08:56:07;;;;;;;2.85;0.70;;;21.70;99.90;;;;;;4147768;28;20057;-49
2022/06/29 08:58:28;;;;;;;11.40;1.88;;;21.90;99.90;;;;;;4146067;28;20096;-47
2022/06/29 09:00:49;;;;;;;3.28;0.90;;;21.80;99.90;;;;;;4147428;28;20065;-47
2022/06/29 09:03:15;;;;;;;5.32;1.17;;;21.90;99.90;;;;;;4156524;28;20167;-46
2022/06/29 09:05:36;;;;;;;2.22;0.70;;;21.90;99.90;;;;;;4159880;28;20556;-50
2022/06/29 09:07:57;;;;;;;3.15;0.60;;;22.00;99.90;;;;;;4155698;28;20420;-46
2022/06/29 09:10:18;;;;;;;3.45;0.70;;;22.50;99.90;;;;;;4147684;28;20057;-46
2022/06/29 09:12:40;;;;;;;1.65;0.60;;;23.10;99.90;;;;;;4147073;28;20165;-46
2022/06/29 09:15:02;;;;;;;3.22;0.70;;;23.30;99.90;;;;;;4146719;28;20477;-47
2022/06/29 09:17:24;;;;;;;6.55;1.17;;;23.30;99.90;;;;;;4151722;28;20060;-48
2022/06/29 09:19:46;;;;;;;;;;;23.30;99.90;;;;;;4148568;28;20060;-49
2022/06/29 09:22:06;;;;;;;8.70;0.90;;;23.10;99.90;;;;;;4146971;28;19932;-48
2022/06/29 09:24:30;;;;;;;2.10;0.70;;;23.20;99.90;;;;;;4146837;28;20662;-48
2022/06/29 09:26:56;;;;;;;4.85;0.93;;;23.10;99.90;;;;;;4147031;28;20516;-49
2022/06/29 09:29:26;;;;;;;2.45;0.60;;;23.20;99.90;;;;;;4151588;28;20052;-47
2022/06/29 09:32:17;;;;;;;4.85;0.60;;;23.30;99.90;;;;;;4154127;28;20053;-47
2022/06/29 09:34:45;;;;;;;2.58;0.80;;;23.40;99.90;;;;;;4143488;28;20056;-46
2022/06/29 09:37:10;;;;;;;3.90;0.70;;;23.30;99.90;;;;;;4146387;28;20060;-45
2022/06/29 09:39:46;;;;;;;3.75;0.93;;;23.30;99.90;;;;;;4157289;28;20041;-48
2022/06/29 09:42:09;;;;;;;2.50;0.60;;;23.20;99.90;;;;;;4148684;28;20519;-47
2022/06/29 09:44:30;;;;;;;5.05;0.70;;;23.30;99.90;;;;;;4150066;28;20412;-46
2022/06/29 09:46:56;;;;;;;0.80;0.50;;;23.00;99.90;;;;;;4147129;28;20048;-46
2022/06/29 09:49:18;;;;;;;4.55;1.08;;;23.10;99.90;;;;;;4162785;28;20056;-47
2022/06/29 09:51:39;;;;;;;2.05;0.50;;;23.30;99.90;;;;;;4152661;28;20523;-46
2022/06/29 09:54:05;;;;;;;6.53;0.80;;;23.30;99.90;;;;;;4159476;28;20128;-49
2022/06/29 09:56:29;;;;;;;3.60;0.60;;;23.60;99.90;;;;;;4145940;28;20061;-50
2022/06/29 09:58:52;;;;;;;3.15;0.60;;;24.00;99.90;;;;;;4146649;28;20135;-47
2022/06/29 10:03:57;;;;;;;2.60;1.25;;;24.10;99.90;;;;;;4146257;28;20052;-47
2022/06/29 10:06:19;;;;;;;4.65;1.13;;;24.00;99.90;;;;;;4146008;28;20053;-46
2022/06/29 10:08:39;;;;;;;4.85;0.80;;;24.20;99.90;;;;;;4161348;28;20056;-46
2022/06/29 10:13:39;;;;;;;3.55;0.70;;;24.30;99.90;;;;;;4149334;28;20044;-50
2022/06/29 10:13:58;;;;;;;2.08;0.60;;;24.50;99.90;;;;;;4148847;28;20108;-46
2022/06/29 10:16:30;;;;;;;3.85;0.80;;;24.70;99.90;;;;;;4145860;28;20052;-49
2022/06/29 10:19:10;;;;;;;1.23;0.50;;;24.50;99.90;;;;;;4146334;28;20060;-50
2022/06/29 10:21:32;;;;;;;2.90;0.60;;;24.20;99.90;;;;;;4145941;28;20131;-46
2022/06/29 10:23:58;;;;;;;2.90;0.70;;;24.10;99.90;;;;;;4160513;28;20061;-49
2022/06/29 10:26:30;;;;;;;2.63;0.52;;;24.10;99.90;;;;;;4151620;28;20393;-46
2022/06/29 10:28:51;;;;;;;1.13;0.50;;;24.20;99.90;;;;;;4146599;28;20088;-48
2022/06/29 10:31:15;;;;;;;1.52;0.50;;;24.20;99.90;;;;;;4146757;28;20060;-47
2022/06/29 10:33:36;;;;;;;2.28;0.60;;;24.40;99.90;;;;;;4146159;28;20528;-48
2022/06/29 10:38:25;;;;;;;1.33;0.57;;;24.90;99.90;;;;;;4156075;28;20048;-47
2022/06/29 10:41:10;;;;;;;5.95;0.65;;;25.10;99.90;;;;;;4145923;28;20130;-49
2022/06/29 10:43:32;;;;;;;6.72;0.50;;;25.30;99.90;;;;;;4153185;28;20460;-46
2022/06/29 10:45:57;;;;;;;4.63;0.50;;;25.60;99.90;;;;;;4147549;28;20108;-48
2022/06/29 10:48:20;;;;;;;3.22;0.50;;;25.90;99.90;;;;;;4144883;28;20104;-46
2022/06/29 10:50:43;;;;;;;2.85;0.73;;;26.10;99.90;;;;;;4151330;28;20523;-49
2022/06/29 10:53:05;;;;;;;3.22;0.50;;;26.20;99.90;;;;;;4160100;28;20129;-47
2022/06/29 10:55:29;;;;;;;1.17;0.40;;;26.00;99.90;;;;;;4146598;28;20104;-47
2022/06/29 10:57:51;;;;;;;1.15;0.40;;;26.00;99.90;;;;;;4145963;28;20052;-48
2022/06/29 11:00:21;;;;;;;2.72;0.60;;;26.00;99.90;;;;;;4145280;28;20132;-49
2022/06/29 11:02:43;;;;;;;3.75;0.50;;;26.10;99.90;;;;;;4145692;28;20044;-46
2022/06/29 11:05:05;;;;;;;6.22;0.40;;;26.10;99.90;;;;;;4144172;28;20053;-47
2022/06/29 11:12:49;;;;;;;3.63;0.50;;;26.40;99.90;;;;;;4145130;28;20567;-46
2022/06/29 11:17:49;;;;;;;0.55;0.50;;;26.30;99.90;;;;;;4153427;28;20092;-47
2022/06/29 11:20:21;;;;;;;3.15;0.65;;;26.20;99.90;;;;;;4152622;28;20049;-47
2022/06/29 11:22:52;;;;;;;3.30;0.45;;;26.30;99.90;;;;;;4154217;28;20073;-46
2022/06/29 11:25:13;;;;;;;2.45;0.60;;;26.20;99.90;;;;;;4145286;28;20397;-46
2022/06/29 11:27:39;;;;;;;1.60;0.50;;;26.30;99.90;;;;;;4145305;28;20100;-47
2022/06/29 11:30:00;;;;;;;3.80;0.50;;;26.10;99.90;;;;;;4146409;28;20052;-45
2022/06/29 11:32:33;;;;;;;1.75;0.43;;;26.20;99.90;;;;;;4149096;28;20139;-45
2022/06/29 11:34:58;;;;;;;6.63;0.60;;;26.30;99.90;;;;;;4144248;28;20468;-50
2022/06/29 11:37:22;;;;;;;2.38;0.40;;;26.20;99.90;;;;;;4144349;28;20057;-49
2022/06/29 11:39:45;;;;;;;2.05;0.50;;;26.20;99.90;;;;;;4156515;28;20071;-51
2022/06/29 11:44:45;;;;;;;1.50;0.75;;;26.20;99.90;;;;;;4149766;28;20056;-50
2022/06/29 11:47:09;;;;;;;1.85;0.60;;;26.30;99.90;;;;;;4147422;28;20083;-51
2022/06/29 11:49:39;;;;;;;5.15;0.50;;;26.40;99.90;;;;;;4156385;28;20060;-51
2022/06/29 11:52:04;;;;;;;3.95;0.57;;;26.50;99.90;;;;;;4152680;28;20438;-49
2022/06/29 11:54:38;;;;;;;1.38;0.70;;;26.60;99.90;;;;;;4144786;28;20097;-50
2022/06/29 11:56:59;;;;;;;2.15;0.40;;;26.70;99.90;;;;;;4144703;28;20136;-48
2022/06/29 11:59:20;;;;;;;2.83;0.50;;;26.90;99.90;;;;;;4144497;28;20060;-51
2022/06/29 12:01:52;;;;;;;2.22;0.50;;;27.20;99.90;;;;;;4147356;28;20123;-48
2022/06/29 12:04:29;;;;;;;2.83;0.50;;;27.20;99.90;;;;;;4145128;28;20125;-51
2022/06/29 12:07:00;;;;;;;1.05;0.45;;;26.90;99.90;;;;;;4144705;28;20520;-51
2022/06/29 12:09:20;;;;;;;2.90;0.50;;;26.90;99.90;;;;;;4144944;28;20108;-51
2022/06/29 12:11:41;;;;;;;2.42;0.40;;;27.00;99.90;;;;;;4148453;28;20076;-48
2022/06/29 12:14:02;;;;;;;3.40;0.60;;;27.10;99.90;;;;;;4152012;28;20072;-50
2022/06/29 12:16:25;;;;;;;0.80;0.50;;;27.10;99.90;;;;;;4147982;28;20056;-49
2022/06/29 12:18:46;;;;;;;1.98;0.40;;;27.10;99.90;;;;;;4158245;28;20053;-50
2022/06/29 12:21:08;;;;;;;1.35;0.50;;;27.20;99.90;;;;;;4153006;28;20129;-50
2022/06/29 12:23:28;;;;;;;4.45;0.65;;;27.70;99.90;;;;;;4155322;28;20642;-50
2022/06/29 12:25:49;;;;;;;2.70;0.40;;;27.90;99.90;;;;;;4164204;28;20099;-48
2022/06/29 12:28:10;;;;;;;1.77;0.52;;;27.70;99.90;;;;;;4146431;28;20088;-50
2022/06/29 12:30:30;;;;;;;1.77;0.40;;;27.50;99.90;;;;;;4147785;28;20057;-49
2022/06/29 12:32:51;;;;;;;2.15;0.50;;;27.40;99.80;;;;;;4150028;28;20057;-51
2022/06/29 12:35:12;;;;;;;1.50;0.40;;;27.30;99.60;;;;;;4152557;28;20428;-50
2022/06/29 12:37:33;;;;;;;2.50;0.50;;;27.40;99.30;;;;;;4150575;28;20640;-50
2022/06/29 12:39:54;;;;;;;3.25;0.40;;;27.30;99.60;;;;;;4146753;28;20052;-47
2022/06/29 12:42:21;;;;;;;0.43;0.38;;;27.40;99.20;;;;;;4147341;28;20100;-49
2022/06/29 12:44:42;;;;;;;2.35;0.60;;;27.40;99.20;;;;;;4163357;28;20076;-47